sensor_id;sensor_type;location;lat;lon;timestamp;temperature;humidity
2653;DHT22;1336;48.692;9.144;2024-02-28T06:00:17;7.90;97.20
2653;DHT22;1336;48.692;9.144;2024-02-28T06:01:09;7.90;97.20
2653;DHT22;1336;48.692;9.144;2024-02-28T06:02:00;7.90;97.20
2653;DHT22;1336;48.692;9.144;2024-02-28T06:02:50;7.90;97.20
2653;DHT22;1336;48.692;9.144;2024-02-28T06:03:42;7.80;97.20
2653;DHT22;1336;48.692;9.144;2024-02-28T06:04:33;7.80;97.20
2653;DHT22;1336;48.692;9.144;2024-02-28T06:05:24;7.80;97.20
2653;DHT22;1336;48.692;9.144;2024-02-28T06:06:16;7.80;97.20
2653;DHT22;1336;48.692;9.144;2024-02-28T06:07:07;7.70;97.20
2653;DHT22;1336;48.692;9.144;2024-02-28T06:07:57;7.70;97.20
2653;DHT22;1336;48.692;9.144;2024-02-28T06:08:49;7.70;97.20
2653;DHT22;1336;48.692;9.144;2024-02-28T06:09:40;7.70;97.20
2653;DHT22;1336;48.692;9.144;2024-02-28T06:10:32;7.70;97.20
2653;DHT22;1336;48.692;9.144;2024-02-28T06:11:23;7.80;97.20
2653;DHT22;1336;48.692;9.144;2024-02-28T06:12:14;7.80;97.20
2653;DHT22;1336;48.692;9.144;2024-02-28T06:13:05;7.80;97.20
2653;DHT22;1336;48.692;9.144;2024-02-28T06:13:56;7.80;97.20
2653;DHT22;1336;48.692;9.144;2024-02-28T06:14:48;7.80;97.20
2653;DHT22;1336;48.692;9.144;2024-02-28T06:15:41;7.80;97.20
2653;DHT22;1336;48.692;9.144;2024-02-28T06:16:33;7.80;97.20
2653;DHT22;1336;48.692;9.144;2024-02-28T06:17:24;7.80;97.20
2653;DHT22;1336;48.692;9.144;2024-02-28T06:18:16;7.80;97.20
2653;DHT22;1336;48.692;9.144;2024-02-28T06:19:07;7.70;97.20
2653;DHT22;1336;48.692;9.144;2024-02-28T06:19:58;7.70;97.20
2653;DHT22;1336;48.692;9.144;2024-02-28T06:20:50;7.70;97.20
2653;DHT22;1336;48.692;9.144;2024-02-28T06:21:41;7.80;97.20
2653;DHT22;1336;48.692;9.144;2024-02-28T06:22:33;7.80;97.20
2653;DHT22;1336;48.692;9.144;2024-02-28T06:23:24;7.80;97.20
2653;DHT22;1336;48.692;9.144;2024-02-28T06:24:15;7.70;97.20
2653;DHT22;1336;48.692;9.144;2024-02-28T06:25:09;7.70;97.20
2653;DHT22;1336;48.692;9.144;2024-02-28T06:26:08;7.70;97.20
2653;DHT22;1336;48.692;9.144;2024-02-28T06:27:05;7.70;97.20
2653;DHT22;1336;48.692;9.144;2024-02-28T06:27:56;7.70;97.20
2653;DHT22;1336;48.692;9.144;2024-02-28T06:28:47;7.70;97.20
2653;DHT22;1336;48.692;9.144;2024-02-28T06:29:39;7.70;97.20
2653;DHT22;1336;48.692;9.144;2024-02-28T06:30:29;7.70;97.20
2653;DHT22;1336;48.692;9.144;2024-02-28T06:31:21;7.60;97.20
2653;DHT22;1336;48.692;9.144;2024-02-28T06:32:13;7.60;97.20
2653;DHT22;1336;48.692;9.144;2024-02-28T06:33:04;7.60;97.20
2653;DHT22;1336;48.692;9.144;2024-02-28T06:33:56;7.60;97.20
2653;DHT22;1336;48.692;9.144;2024-02-28T06:34:47;7.60;97.20
2653;DHT22;1336;48.692;9.144;2024-02-28T06:35:39;7.70;97.20
2653;DHT22;1336;48.692;9.144;2024-02-28T06:36:30;7.70;97.20
2653;DHT22;1336;48.692;9.144;2024-02-28T06:37:20;7.70;97.20
2653;DHT22;1336;48.692;9.144;2024-02-28T06:38:12;7.60;97.20
2653;DHT22;1336;48.692;9.144;2024-02-28T06:39:03;7.60;97.20
2653;DHT22;1336;48.692;9.144;2024-02-28T06:39:54;7.60;97.20
2653;DHT22;1336;48.692;9.144;2024-02-28T06:40:45;7.70;97.20
2653;DHT22;1336;48.692;9.144;2024-02-28T06:41:36;7.60;97.20
2653;DHT22;1336;48.692;9.144;2024-02-28T06:42:28;7.60;97.20
2653;DHT22;1336;48.692;9.144;2024-02-28T06:43:19;7.60;97.20
2653;DHT22;1336;48.692;9.144;2024-02-28T06:44:09;7.60;97.20
2653;DHT22;1336;48.692;9.144;2024-02-28T06:45:01;7.60;97.20
2653;DHT22;1336;48.692;9.144;2024-02-28T06:45:52;7.60;97.20
2653;DHT22;1336;48.692;9.144;2024-02-28T06:46:45;7.60;97.20
2653;DHT22;1336;48.692;9.144;2024-02-28T06:47:36;7.70;97.20
2653;DHT22;1336;48.692;9.144;2024-02-28T06:48:28;7.60;97.20
2653;DHT22;1336;48.692;9.144;2024-02-28T06:49:19;7.60;97.20
2653;DHT22;1336;48.692;9.144;2024-02-28T06:50:11;7.60;97.20
2653;DHT22;1336;48.692;9.144;2024-02-28T06:51:01;7.70;97.20
2653;DHT22;1336;48.692;9.144;2024-02-28T06:51:53;7.70;97.20
2653;DHT22;1336;48.692;9.144;2024-02-28T06:52:44;7.70;97.20
2653;DHT22;1336;48.692;9.144;2024-02-28T06:53:35;7.70;97.20
2653;DHT22;1336;48.692;9.144;2024-02-28T06:54:26;7.70;97.20
2653;DHT22;1336;48.692;9.144;2024-02-28T06:55:17;7.70;97.20
2653;DHT22;1336;48.692;9.144;2024-02-28T06:56:08;7.70;97.20
2653;DHT22;1336;48.692;9.144;2024-02-28T06:57:00;7.80;97.20
2653;DHT22;1336;48.692;9.144;2024-02-28T06:57:51;7.80;97.20
2653;DHT22;1336;48.692;9.144;2024-02-28T06:58:41;7.80;97.20
2653;DHT22;1336;48.692;9.144;2024-02-28T06:59:33;7.70;97.20
2653;DHT22;1336;48.692;9.144;2024-02-28T07:00:24;7.70;97.20
2653;DHT22;1336;48.692;9.144;2024-02-28T07:01:15;7.70;97.20
2653;DHT22;1336;48.692;9.144;2024-02-28T07:02:08;7.70;97.20
2653;DHT22;1336;48.692;9.144;2024-02-28T07:02:58;7.70;97.20
2653;DHT22;1336;48.692;9.144;2024-02-28T07:03:49;7.80;97.20
2653;DHT22;1336;48.692;9.144;2024-02-28T07:04:41;7.80;97.20
2653;DHT22;1336;48.692;9.144;2024-02-28T07:05:32;7.80;97.20
2653;DHT22;1336;48.692;9.144;2024-02-28T07:06:24;7.90;97.20
2653;DHT22;1336;48.692;9.144;2024-02-28T07:07:15;7.90;97.20
2653;DHT22;1336;48.692;9.144;2024-02-28T07:08:06;8.00;97.20
2653;DHT22;1336;48.692;9.144;2024-02-28T07:09:01;8.00;97.20
2653;DHT22;1336;48.692;9.144;2024-02-28T07:09:51;8.00;97.20
2653;DHT22;1336;48.692;9.144;2024-02-28T07:10:43;8.10;97.20
2653;DHT22;1336;48.692;9.144;2024-02-28T07:11:38;8.10;97.20
2653;DHT22;1336;48.692;9.144;2024-02-28T07:12:30;8.20;97.20
2653;DHT22;1336;48.692;9.144;2024-02-28T07:13:20;8.20;97.20
2653;DHT22;1336;48.692;9.144;2024-02-28T07:14:11;8.20;97.20
2653;DHT22;1336;48.692;9.144;2024-02-28T07:15:04;8.30;97.20
2653;DHT22;1336;48.692;9.144;2024-02-28T07:15:55;8.20;97.20
2653;DHT22;1336;48.692;9.144;2024-02-28T07:16:47;8.30;97.20
2653;DHT22;1336;48.692;9.144;2024-02-28T07:17:40;8.20;97.20
2653;DHT22;1336;48.692;9.144;2024-02-28T07:18:31;8.30;97.20
2653;DHT22;1336;48.692;9.144;2024-02-28T07:19:22;8.30;97.20
2653;DHT22;1336;48.692;9.144;2024-02-28T07:20:13;8.30;97.20
2653;DHT22;1336;48.692;9.144;2024-02-28T07:21:04;8.30;97.20
2653;DHT22;1336;48.692;9.144;2024-02-28T07:21:57;8.30;97.20
2653;DHT22;1336;48.692;9.144;2024-02-28T07:22:48;8.30;97.20
2653;DHT22;1336;48.692;9.144;2024-02-28T07:23:39;8.20;97.20
2653;DHT22;1336;48.692;9.144;2024-02-28T07:24:31;8.30;97.20
2653;DHT22;1336;48.692;9.144;2024-02-28T07:25:22;8.30;97.20
2653;DHT22;1336;48.692;9.144;2024-02-28T07:26:15;8.30;97.20
2653;DHT22;1336;48.692;9.144;2024-02-28T07:27:07;8.30;97.20
2653;DHT22;1336;48.692;9.144;2024-02-28T07:27:58;8.40;97.20
2653;DHT22;1336;48.692;9.144;2024-02-28T07:28:50;8.40;97.20
2653;DHT22;1336;48.692;9.144;2024-02-28T07:29:41;8.40;97.20
2653;DHT22;1336;48.692;9.144;2024-02-28T07:30:32;8.30;97.20
2653;DHT22;1336;48.692;9.144;2024-02-28T07:31:23;8.30;97.20
2653;DHT22;1336;48.692;9.144;2024-02-28T07:32:14;8.30;97.20
2653;DHT22;1336;48.692;9.144;2024-02-28T07:33:06;8.30;97.20
2653;DHT22;1336;48.692;9.144;2024-02-28T07:33:59;8.20;97.20
2653;DHT22;1336;48.692;9.144;2024-02-28T07:34:49;8.30;97.20
2653;DHT22;1336;48.692;9.144;2024-02-28T07:35:44;8.30;97.20
2653;DHT22;1336;48.692;9.144;2024-02-28T07:36:36;8.30;97.20
2653;DHT22;1336;48.692;9.144;2024-02-28T07:37:27;8.30;97.20
2653;DHT22;1336;48.692;9.144;2024-02-28T07:38:18;8.40;97.20
2653;DHT22;1336;48.692;9.144;2024-02-28T07:39:10;8.40;97.20
2653;DHT22;1336;48.692;9.144;2024-02-28T07:40:03;8.40;97.20
2653;DHT22;1336;48.692;9.144;2024-02-28T07:40:55;8.40;97.20
2653;DHT22;1336;48.692;9.144;2024-02-28T07:41:46;8.40;97.20
2653;DHT22;1336;48.692;9.144;2024-02-28T07:42:37;8.40;97.20
2653;DHT22;1336;48.692;9.144;2024-02-28T07:43:29;8.40;97.20
2653;DHT22;1336;48.692;9.144;2024-02-28T07:44:23;8.40;97.20
2653;DHT22;1336;48.692;9.144;2024-02-28T07:45:14;8.40;97.20
2653;DHT22;1336;48.692;9.144;2024-02-28T07:46:06;8.40;97.20
2653;DHT22;1336;48.692;9.144;2024-02-28T07:46:58;8.40;97.20
2653;DHT22;1336;48.692;9.144;2024-02-28T07:47:49;8.40;97.20
2653;DHT22;1336;48.692;9.144;2024-02-28T07:48:42;8.40;97.20
2653;DHT22;1336;48.692;9.144;2024-02-28T07:49:33;8.40;97.20
2653;DHT22;1336;48.692;9.144;2024-02-28T07:50:25;8.40;97.20
2653;DHT22;1336;48.692;9.144;2024-02-28T07:51:17;8.40;97.20
2653;DHT22;1336;48.692;9.144;2024-02-28T07:52:08;8.50;97.20
2653;DHT22;1336;48.692;9.144;2024-02-28T07:52:59;8.50;97.20
2653;DHT22;1336;48.692;9.144;2024-02-28T07:53:50;8.50;97.20
2653;DHT22;1336;48.692;9.144;2024-02-28T07:54:42;8.50;97.20
2653;DHT22;1336;48.692;9.144;2024-02-28T07:55:33;8.50;97.20
2653;DHT22;1336;48.692;9.144;2024-02-28T07:56:24;8.60;97.20
2653;DHT22;1336;48.692;9.144;2024-02-28T07:57:16;8.60;97.20
2653;DHT22;1336;48.692;9.144;2024-02-28T07:58:07;8.60;97.20
2653;DHT22;1336;48.692;9.144;2024-02-28T07:58:59;8.60;97.20
2653;DHT22;1336;48.692;9.144;2024-02-28T07:59:50;8.60;97.20
2653;DHT22;1336;48.692;9.144;2024-02-28T08:00:42;8.60;97.20
2653;DHT22;1336;48.692;9.144;2024-02-28T08:01:34;8.60;97.20
2653;DHT22;1336;48.692;9.144;2024-02-28T08:02:25;8.50;97.20
2653;DHT22;1336;48.692;9.144;2024-02-28T08:03:16;8.50;97.20
2653;DHT22;1336;48.692;9.144;2024-02-28T08:04:08;8.50;97.20
2653;DHT22;1336;48.692;9.144;2024-02-28T08:04:59;8.50;97.20
2653;DHT22;1336;48.692;9.144;2024-02-28T08:05:51;8.50;97.20
2653;DHT22;1336;48.692;9.144;2024-02-28T08:06:42;8.50;97.20
2653;DHT22;1336;48.692;9.144;2024-02-28T08:07:32;8.40;97.20
2653;DHT22;1336;48.692;9.144;2024-02-28T08:08:24;8.40;97.20
2653;DHT22;1336;48.692;9.144;2024-02-28T08:09:15;8.40;97.20
2653;DHT22;1336;48.692;9.144;2024-02-28T08:10:06;8.30;97.20
2653;DHT22;1336;48.692;9.144;2024-02-28T08:11:00;8.30;97.20
2653;DHT22;1336;48.692;9.144;2024-02-28T08:11:51;8.30;97.20
2653;DHT22;1336;48.692;9.144;2024-02-28T08:12:42;8.20;97.20
2653;DHT22;1336;48.692;9.144;2024-02-28T08:13:33;8.20;97.20
2653;DHT22;1336;48.692;9.144;2024-02-28T08:14:24;8.30;97.20
2653;DHT22;1336;48.692;9.144;2024-02-28T08:15:15;8.30;97.20
2653;DHT22;1336;48.692;9.144;2024-02-28T08:16:07;8.20;97.20
2653;DHT22;1336;48.692;9.144;2024-02-28T08:16:59;8.20;97.20
2653;DHT22;1336;48.692;9.144;2024-02-28T08:17:50;8.20;97.20
2653;DHT22;1336;48.692;9.144;2024-02-28T08:18:41;8.20;97.20
2653;DHT22;1336;48.692;9.144;2024-02-28T08:19:33;8.20;97.20
2653;DHT22;1336;48.692;9.144;2024-02-28T08:20:25;8.20;97.20
2653;DHT22;1336;48.692;9.144;2024-02-28T08:21:16;8.20;97.20
2653;DHT22;1336;48.692;9.144;2024-02-28T08:22:09;8.30;97.20
2653;DHT22;1336;48.692;9.144;2024-02-28T08:23:01;8.30;97.20
2653;DHT22;1336;48.692;9.144;2024-02-28T08:23:53;8.30;97.20
2653;DHT22;1336;48.692;9.144;2024-02-28T08:24:44;8.30;97.20
2653;DHT22;1336;48.692;9.144;2024-02-28T08:25:36;8.30;97.20
2653;DHT22;1336;48.692;9.144;2024-02-28T08:26:28;8.30;97.20
2653;DHT22;1336;48.692;9.144;2024-02-28T08:27:20;8.30;97.20
2653;DHT22;1336;48.692;9.144;2024-02-28T08:28:11;8.40;97.20
2653;DHT22;1336;48.692;9.144;2024-02-28T08:29:02;8.40;97.20
2653;DHT22;1336;48.692;9.144;2024-02-28T08:29:53;8.40;97.20
2653;DHT22;1336;48.692;9.144;2024-02-28T08:30:44;8.40;97.20
2653;DHT22;1336;48.692;9.144;2024-02-28T08:31:40;8.40;97.20
2653;DHT22;1336;48.692;9.144;2024-02-28T08:32:32;8.40;97.20
2653;DHT22;1336;48.692;9.144;2024-02-28T08:33:23;8.40;97.20
2653;DHT22;1336;48.692;9.144;2024-02-28T08:34:13;8.40;97.20
2653;DHT22;1336;48.692;9.144;2024-02-28T08:35:08;8.50;97.20
2653;DHT22;1336;48.692;9.144;2024-02-28T08:36:00;8.50;97.20
2653;DHT22;1336;48.692;9.144;2024-02-28T08:36:51;8.50;97.20
2653;DHT22;1336;48.692;9.144;2024-02-28T08:37:43;8.50;97.20
2653;DHT22;1336;48.692;9.144;2024-02-28T08:38:34;8.50;97.20
2653;DHT22;1336;48.692;9.144;2024-02-28T08:39:29;8.50;97.20
2653;DHT22;1336;48.692;9.144;2024-02-28T08:40:20;8.50;97.20
2653;DHT22;1336;48.692;9.144;2024-02-28T08:41:11;8.50;97.20
2653;DHT22;1336;48.692;9.144;2024-02-28T08:42:03;8.50;97.20
2653;DHT22;1336;48.692;9.144;2024-02-28T08:42:55;8.50;97.20
2653;DHT22;1336;48.692;9.144;2024-02-28T08:43:46;8.50;97.20
2653;DHT22;1336;48.692;9.144;2024-02-28T08:44:36;8.50;97.20
2653;DHT22;1336;48.692;9.144;2024-02-28T08:45:28;8.50;97.20
2653;DHT22;1336;48.692;9.144;2024-02-28T08:46:19;8.50;97.20
2653;DHT22;1336;48.692;9.144;2024-02-28T08:47:10;8.40;97.20
2653;DHT22;1336;48.692;9.144;2024-02-28T08:48:02;8.40;97.20
2653;DHT22;1336;48.692;9.144;2024-02-28T08:48:53;8.40;97.20
2653;DHT22;1336;48.692;9.144;2024-02-28T08:49:44;8.40;97.20
2653;DHT22;1336;48.692;9.144;2024-02-28T08:50:37;8.40;97.20
2653;DHT22;1336;48.692;9.144;2024-02-28T08:51:28;8.40;97.20
2653;DHT22;1336;48.692;9.144;2024-02-28T08:52:20;8.40;97.20
2653;DHT22;1336;48.692;9.144;2024-02-28T08:53:10;8.40;97.20
2653;DHT22;1336;48.692;9.144;2024-02-28T08:54:01;8.40;97.20
2653;DHT22;1336;48.692;9.144;2024-02-28T08:54:54;8.40;97.20
2653;DHT22;1336;48.692;9.144;2024-02-28T08:55:45;8.50;97.20
2653;DHT22;1336;48.692;9.144;2024-02-28T08:56:37;8.50;97.20
2653;DHT22;1336;48.692;9.144;2024-02-28T08:57:28;8.50;97.20
2653;DHT22;1336;48.692;9.144;2024-02-28T08:58:20;8.40;97.20
2653;DHT22;1336;48.692;9.144;2024-02-28T08:59:12;8.40;97.20
2653;DHT22;1336;48.692;9.144;2024-02-28T09:00:03;8.40;97.20
2653;DHT22;1336;48.692;9.144;2024-02-28T09:00:54;8.40;97.20
2653;DHT22;1336;48.692;9.144;2024-02-28T09:01:46;8.40;97.20
2653;DHT22;1336;48.692;9.144;2024-02-28T09:02:36;8.40;97.20
2653;DHT22;1336;48.692;9.144;2024-02-28T09:03:28;8.50;97.20
2653;DHT22;1336;48.692;9.144;2024-02-28T09:04:19;8.50;97.20
2653;DHT22;1336;48.692;9.144;2024-02-28T09:05:11;8.50;97.20
2653;DHT22;1336;48.692;9.144;2024-02-28T09:06:04;8.50;97.20
2653;DHT22;1336;48.692;9.144;2024-02-28T09:06:55;8.50;97.20
2653;DHT22;1336;48.692;9.144;2024-02-28T09:07:46;8.50;97.20
2653;DHT22;1336;48.692;9.144;2024-02-28T09:08:41;8.50;97.20
2653;DHT22;1336;48.692;9.144;2024-02-28T09:09:33;8.60;97.20
2653;DHT22;1336;48.692;9.144;2024-02-28T09:10:28;8.60;97.20
2653;DHT22;1336;48.692;9.144;2024-02-28T09:11:21;8.60;97.20
2653;DHT22;1336;48.692;9.144;2024-02-28T09:12:12;8.60;97.20
2653;DHT22;1336;48.692;9.144;2024-02-28T09:13:03;8.50;97.20
2653;DHT22;1336;48.692;9.144;2024-02-28T09:13:57;8.50;97.20
2653;DHT22;1336;48.692;9.144;2024-02-28T09:14:47;8.40;97.20
2653;DHT22;1336;48.692;9.144;2024-02-28T09:15:45;8.40;97.20
2653;DHT22;1336;48.692;9.144;2024-02-28T09:16:36;8.40;97.20
2653;DHT22;1336;48.692;9.144;2024-02-28T09:17:27;8.40;97.20
2653;DHT22;1336;48.692;9.144;2024-02-28T09:18:18;8.40;97.20
2653;DHT22;1336;48.692;9.144;2024-02-28T09:19:09;8.50;97.20
2653;DHT22;1336;48.692;9.144;2024-02-28T09:20:00;8.50;97.20
2653;DHT22;1336;48.692;9.144;2024-02-28T09:20:51;8.60;97.20
2653;DHT22;1336;48.692;9.144;2024-02-28T09:21:44;8.60;97.20
2653;DHT22;1336;48.692;9.144;2024-02-28T09:22:35;8.60;97.20
2653;DHT22;1336;48.692;9.144;2024-02-28T09:23:25;8.60;97.20
2653;DHT22;1336;48.692;9.144;2024-02-28T09:24:17;8.60;97.20
2653;DHT22;1336;48.692;9.144;2024-02-28T09:25:08;8.60;97.20
2653;DHT22;1336;48.692;9.144;2024-02-28T09:26:03;8.50;97.20
2653;DHT22;1336;48.692;9.144;2024-02-28T09:26:54;8.50;97.20
2653;DHT22;1336;48.692;9.144;2024-02-28T09:27:45;8.50;97.20
2653;DHT22;1336;48.692;9.144;2024-02-28T09:28:37;8.50;97.20
2653;DHT22;1336;48.692;9.144;2024-02-28T09:29:29;8.50;97.20
2653;DHT22;1336;48.692;9.144;2024-02-28T09:30:19;8.60;97.20
2653;DHT22;1336;48.692;9.144;2024-02-28T09:31:12;8.60;97.20
2653;DHT22;1336;48.692;9.144;2024-02-28T09:32:06;8.60;97.20
2653;DHT22;1336;48.692;9.144;2024-02-28T09:32:57;8.60;97.20
2653;DHT22;1336;48.692;9.144;2024-02-28T09:33:49;8.60;97.20
2653;DHT22;1336;48.692;9.144;2024-02-28T09:34:39;8.60;97.20
2653;DHT22;1336;48.692;9.144;2024-02-28T09:35:31;8.50;97.20
2653;DHT22;1336;48.692;9.144;2024-02-28T09:36:22;8.50;97.20
2653;DHT22;1336;48.692;9.144;2024-02-28T09:37:15;8.50;97.20
2653;DHT22;1336;48.692;9.144;2024-02-28T09:38:07;8.50;97.20
2653;DHT22;1336;48.692;9.144;2024-02-28T09:38:58;8.50;97.20
2653;DHT22;1336;48.692;9.144;2024-02-28T09:39:48;8.50;97.20
2653;DHT22;1336;48.692;9.144;2024-02-28T09:40:40;8.60;97.20
2653;DHT22;1336;48.692;9.144;2024-02-28T09:41:32;8.60;97.20
2653;DHT22;1336;48.692;9.144;2024-02-28T09:42:23;8.60;97.20
2653;DHT22;1336;48.692;9.144;2024-02-28T09:43:19;8.60;97.20
2653;DHT22;1336;48.692;9.144;2024-02-28T09:44:16;8.50;97.20
2653;DHT22;1336;48.692;9.144;2024-02-28T09:45:08;8.40;97.20
2653;DHT22;1336;48.692;9.144;2024-02-28T09:46:04;8.50;97.20
2653;DHT22;1336;48.692;9.144;2024-02-28T09:46:55;8.50;97.20
2653;DHT22;1336;48.692;9.144;2024-02-28T09:47:46;8.50;97.20
2653;DHT22;1336;48.692;9.144;2024-02-28T09:48:38;8.60;97.20
2653;DHT22;1336;48.692;9.144;2024-02-28T09:49:31;8.60;97.20
2653;DHT22;1336;48.692;9.144;2024-02-28T09:50:24;8.60;97.20
2653;DHT22;1336;48.692;9.144;2024-02-28T09:51:17;8.60;97.20
2653;DHT22;1336;48.692;9.144;2024-02-28T09:52:08;8.60;97.20
2653;DHT22;1336;48.692;9.144;2024-02-28T09:53:01;8.70;97.20
2653;DHT22;1336;48.692;9.144;2024-02-28T09:53:52;8.70;97.20
2653;DHT22;1336;48.692;9.144;2024-02-28T09:54:44;8.70;97.20
2653;DHT22;1336;48.692;9.144;2024-02-28T09:55:35;8.70;97.20
2653;DHT22;1336;48.692;9.144;2024-02-28T09:56:27;8.70;97.20
2653;DHT22;1336;48.692;9.144;2024-02-28T09:57:18;8.70;97.20
2653;DHT22;1336;48.692;9.144;2024-02-28T09:58:09;8.80;97.20
2653;DHT22;1336;48.692;9.144;2024-02-28T09:59:02;8.80;97.20
2653;DHT22;1336;48.692;9.144;2024-02-28T09:59:55;8.80;97.20
2653;DHT22;1336;48.692;9.144;2024-02-28T10:00:46;8.80;97.20
2653;DHT22;1336;48.692;9.144;2024-02-28T10:01:42;8.80;97.20
2653;DHT22;1336;48.692;9.144;2024-02-28T10:02:34;8.90;97.20
2653;DHT22;1336;48.692;9.144;2024-02-28T10:03:26;8.90;97.20
2653;DHT22;1336;48.692;9.144;2024-02-28T10:04:18;8.90;97.20
2653;DHT22;1336;48.692;9.144;2024-02-28T10:05:09;8.90;97.20
2653;DHT22;1336;48.692;9.144;2024-02-28T10:06:01;8.90;97.20
2653;DHT22;1336;48.692;9.144;2024-02-28T10:06:52;8.90;97.20
2653;DHT22;1336;48.692;9.144;2024-02-28T10:07:43;8.90;97.20
2653;DHT22;1336;48.692;9.144;2024-02-28T10:08:36;8.90;97.20
2653;DHT22;1336;48.692;9.144;2024-02-28T10:09:27;8.90;97.20
2653;DHT22;1336;48.692;9.144;2024-02-28T10:10:19;8.90;97.20
2653;DHT22;1336;48.692;9.144;2024-02-28T10:11:10;8.90;97.20
2653;DHT22;1336;48.692;9.144;2024-02-28T10:12:02;8.90;97.20
2653;DHT22;1336;48.692;9.144;2024-02-28T10:12:54;8.90;97.20
2653;DHT22;1336;48.692;9.144;2024-02-28T10:13:45;8.90;97.20
2653;DHT22;1336;48.692;9.144;2024-02-28T10:14:36;8.90;97.20
2653;DHT22;1336;48.692;9.144;2024-02-28T10:15:28;8.90;97.20
2653;DHT22;1336;48.692;9.144;2024-02-28T10:16:19;8.90;97.20
2653;DHT22;1336;48.692;9.144;2024-02-28T10:17:11;8.90;97.20
2653;DHT22;1336;48.692;9.144;2024-02-28T10:18:02;9.00;97.20
2653;DHT22;1336;48.692;9.144;2024-02-28T10:18:54;9.00;97.20
2653;DHT22;1336;48.692;9.144;2024-02-28T10:19:45;9.00;97.20
2653;DHT22;1336;48.692;9.144;2024-02-28T10:20:37;9.10;97.20
2653;DHT22;1336;48.692;9.144;2024-02-28T10:21:30;9.10;97.20
2653;DHT22;1336;48.692;9.144;2024-02-28T10:22:23;9.10;97.20
2653;DHT22;1336;48.692;9.144;2024-02-28T10:23:16;9.10;97.20
2653;DHT22;1336;48.692;9.144;2024-02-28T10:24:08;9.10;97.20
2653;DHT22;1336;48.692;9.144;2024-02-28T10:25:03;9.10;97.20
2653;DHT22;1336;48.692;9.144;2024-02-28T10:25:54;9.10;97.20
2653;DHT22;1336;48.692;9.144;2024-02-28T10:26:46;9.10;97.20
2653;DHT22;1336;48.692;9.144;2024-02-28T10:27:47;9.10;97.20
2653;DHT22;1336;48.692;9.144;2024-02-28T10:28:38;9.10;97.20
2653;DHT22;1336;48.692;9.144;2024-02-28T10:29:30;9.10;97.20
2653;DHT22;1336;48.692;9.144;2024-02-28T10:30:23;9.10;97.20
2653;DHT22;1336;48.692;9.144;2024-02-28T10:31:14;9.10;97.20
2653;DHT22;1336;48.692;9.144;2024-02-28T10:32:05;9.20;97.20
2653;DHT22;1336;48.692;9.144;2024-02-28T10:32:57;9.20;97.20
2653;DHT22;1336;48.692;9.144;2024-02-28T10:33:48;9.20;97.20
2653;DHT22;1336;48.692;9.144;2024-02-28T10:34:40;9.20;97.20
2653;DHT22;1336;48.692;9.144;2024-02-28T10:35:31;9.20;97.20
2653;DHT22;1336;48.692;9.144;2024-02-28T10:36:22;9.20;97.20
2653;DHT22;1336;48.692;9.144;2024-02-28T10:37:14;9.30;97.20
2653;DHT22;1336;48.692;9.144;2024-02-28T10:38:06;9.30;97.20
2653;DHT22;1336;48.692;9.144;2024-02-28T10:38:56;9.30;97.20
2653;DHT22;1336;48.692;9.144;2024-02-28T10:39:52;9.30;97.20
2653;DHT22;1336;48.692;9.144;2024-02-28T10:40:45;9.30;97.20
2653;DHT22;1336;48.692;9.144;2024-02-28T10:41:38;9.30;97.20
2653;DHT22;1336;48.692;9.144;2024-02-28T10:42:30;9.30;97.20
2653;DHT22;1336;48.692;9.144;2024-02-28T10:43:21;9.30;97.20
2653;DHT22;1336;48.692;9.144;2024-02-28T10:44:13;9.30;97.20
2653;DHT22;1336;48.692;9.144;2024-02-28T10:45:05;9.30;97.20
2653;DHT22;1336;48.692;9.144;2024-02-28T10:45:57;9.30;97.20
2653;DHT22;1336;48.692;9.144;2024-02-28T10:46:49;9.30;97.20
2653;DHT22;1336;48.692;9.144;2024-02-28T10:47:41;9.30;97.20
2653;DHT22;1336;48.692;9.144;2024-02-28T10:48:32;9.30;97.20
2653;DHT22;1336;48.692;9.144;2024-02-28T10:49:23;9.30;97.20
2653;DHT22;1336;48.692;9.144;2024-02-28T10:50:14;9.20;97.20
2653;DHT22;1336;48.692;9.144;2024-02-28T10:51:08;9.20;97.20
2653;DHT22;1336;48.692;9.144;2024-02-28T10:52:03;9.20;97.20
2653;DHT22;1336;48.692;9.144;2024-02-28T10:52:54;9.20;97.20
2653;DHT22;1336;48.692;9.144;2024-02-28T10:54:34;9.20;97.20
2653;DHT22;1336;48.692;9.144;2024-02-28T10:55:32;9.20;97.20
2653;DHT22;1336;48.692;9.144;2024-02-28T10:56:23;9.20;97.20
2653;DHT22;1336;48.692;9.144;2024-02-28T10:57:15;9.20;97.20
2653;DHT22;1336;48.692;9.144;2024-02-28T10:58:08;9.20;97.20
2653;DHT22;1336;48.692;9.144;2024-02-28T10:59:00;9.20;97.20
2653;DHT22;1336;48.692;9.144;2024-02-28T10:59:51;9.10;97.20
2653;DHT22;1336;48.692;9.144;2024-02-28T11:00:44;9.10;97.20
2653;DHT22;1336;48.692;9.144;2024-02-28T11:01:37;9.10;97.20
2653;DHT22;1336;48.692;9.144;2024-02-28T11:02:28;9.10;97.20
2653;DHT22;1336;48.692;9.144;2024-02-28T11:03:20;9.10;97.20
2653;DHT22;1336;48.692;9.144;2024-02-28T11:04:13;9.10;97.20
2653;DHT22;1336;48.692;9.144;2024-02-28T11:05:04;9.10;97.20
2653;DHT22;1336;48.692;9.144;2024-02-28T11:05:56;9.10;97.20
2653;DHT22;1336;48.692;9.144;2024-02-28T11:06:49;9.10;97.20
2653;DHT22;1336;48.692;9.144;2024-02-28T11:07:41;9.10;97.20
2653;DHT22;1336;48.692;9.144;2024-02-28T11:08:33;9.10;97.20
2653;DHT22;1336;48.692;9.144;2024-02-28T11:09:25;9.10;97.20
2653;DHT22;1336;48.692;9.144;2024-02-28T11:10:23;9.10;97.20
2653;DHT22;1336;48.692;9.144;2024-02-28T11:11:16;9.10;97.20
2653;DHT22;1336;48.692;9.144;2024-02-28T11:12:24;9.10;97.20
2653;DHT22;1336;48.692;9.144;2024-02-28T11:13:22;9.10;97.20
2653;DHT22;1336;48.692;9.144;2024-02-28T11:14:15;9.10;97.20
2653;DHT22;1336;48.692;9.144;2024-02-28T11:15:06;9.10;97.20
2653;DHT22;1336;48.692;9.144;2024-02-28T11:16:08;9.10;97.20
2653;DHT22;1336;48.692;9.144;2024-02-28T11:17:02;9.10;97.20
2653;DHT22;1336;48.692;9.144;2024-02-28T11:17:53;9.10;97.20
2653;DHT22;1336;48.692;9.144;2024-02-28T11:18:48;9.10;97.20
2653;DHT22;1336;48.692;9.144;2024-02-28T11:19:39;9.10;97.20
2653;DHT22;1336;48.692;9.144;2024-02-28T11:20:32;9.00;97.20
2653;DHT22;1336;48.692;9.144;2024-02-28T11:21:23;9.00;97.20
2653;DHT22;1336;48.692;9.144;2024-02-28T11:22:18;9.00;97.20
2653;DHT22;1336;48.692;9.144;2024-02-28T11:23:11;9.00;97.20
2653;DHT22;1336;48.692;9.144;2024-02-28T11:24:03;9.00;97.20
2653;DHT22;1336;48.692;9.144;2024-02-28T11:24:54;9.00;97.20
2653;DHT22;1336;48.692;9.144;2024-02-28T11:25:46;8.90;97.20
2653;DHT22;1336;48.692;9.144;2024-02-28T11:26:38;8.90;97.20
2653;DHT22;1336;48.692;9.144;2024-02-28T11:27:29;9.00;97.20
2653;DHT22;1336;48.692;9.144;2024-02-28T11:28:21;9.00;97.20
2653;DHT22;1336;48.692;9.144;2024-02-28T11:29:14;9.00;97.20
2653;DHT22;1336;48.692;9.144;2024-02-28T11:30:07;9.00;97.20
2653;DHT22;1336;48.692;9.144;2024-02-28T11:30:58;9.00;97.20
2653;DHT22;1336;48.692;9.144;2024-02-28T11:31:50;9.00;97.20
2653;DHT22;1336;48.692;9.144;2024-02-28T11:32:41;9.00;97.20
2653;DHT22;1336;48.692;9.144;2024-02-28T11:33:31;9.00;97.20
2653;DHT22;1336;48.692;9.144;2024-02-28T11:34:23;8.90;97.20
2653;DHT22;1336;48.692;9.144;2024-02-28T11:35:14;8.90;97.20
2653;DHT22;1336;48.692;9.144;2024-02-28T11:36:06;8.90;97.20
2653;DHT22;1336;48.692;9.144;2024-02-28T11:36:57;8.90;97.20
2653;DHT22;1336;48.692;9.144;2024-02-28T11:37:49;8.90;97.20
2653;DHT22;1336;48.692;9.144;2024-02-28T11:38:41;8.80;97.20
2653;DHT22;1336;48.692;9.144;2024-02-28T11:39:32;8.80;97.20
2653;DHT22;1336;48.692;9.144;2024-02-28T11:40:24;8.80;97.20
2653;DHT22;1336;48.692;9.144;2024-02-28T11:41:25;8.70;97.20
2653;DHT22;1336;48.692;9.144;2024-02-28T11:42:19;8.80;97.20
2653;DHT22;1336;48.692;9.144;2024-02-28T11:43:11;8.80;97.20
2653;DHT22;1336;48.692;9.144;2024-02-28T11:44:01;8.80;97.20
2653;DHT22;1336;48.692;9.144;2024-02-28T11:44:55;8.90;97.20